createdAt,value
2023-03-24T00:00:22.374Z,3.17
2023-03-24T00:02:24.254Z,3.43
2023-03-24T00:04:26.098Z,3.03
2023-03-24T00:06:27.854Z,3.73
2023-03-24T00:08:36.471Z,4.20
2023-03-24T00:10:42.534Z,3.40
2023-03-24T00:12:46.470Z,3.90
2023-03-24T00:14:48.311Z,3.90
2023-03-24T00:16:50.680Z,3.80
2023-03-24T00:18:53.963Z,4.03
2023-03-24T00:20:59.007Z,3.80
2023-03-24T00:23:04.014Z,4.27
2023-03-24T00:25:05.834Z,4.40
2023-03-24T00:27:08.368Z,4.20
2023-03-24T00:29:13.552Z,4.10
2023-03-24T00:31:17.582Z,4.57
2023-03-24T00:33:19.417Z,3.93
2023-03-24T00:35:24.431Z,4.23
2023-03-24T00:37:27.618Z,4.43
2023-03-24T00:39:29.383Z,4.60
2023-03-24T00:41:33.876Z,5.17
2023-03-24T00:43:38.482Z,5.80
2023-03-24T00:45:48.129Z,5.23
2023-03-24T00:47:53.849Z,5.23
2023-03-24T00:49:57.876Z,5.57
2023-03-24T00:52:01.773Z,5.47
2023-03-24T00:54:04.391Z,5.67
2023-03-24T00:56:09.101Z,5.87
2023-03-24T00:58:11.004Z,5.50
2023-03-24T01:00:21.657Z,6.37
2023-03-24T01:02:28.982Z,6.53
2023-03-24T01:04:31.571Z,6.70
2023-03-24T01:06:38.834Z,7.10
2023-03-24T01:08:40.591Z,6.23
2023-03-24T01:10:53.142Z,6.47
2023-03-24T01:13:00.120Z,6.13
2023-03-24T01:15:05.554Z,6.93
2023-03-24T01:17:07.876Z,7.30
2023-03-24T01:19:10.335Z,7.20
2023-03-24T01:21:12.857Z,7.30
2023-03-24T01:23:17.584Z,6.87
2023-03-24T01:25:22.182Z,6.90
2023-03-24T01:27:24.013Z,6.67
2023-03-24T01:29:25.943Z,7.40
2023-03-24T01:31:27.755Z,8.00
2023-03-24T01:33:29.581Z,7.70
2023-03-24T01:35:35.116Z,7.63
2023-03-24T01:37:37.653Z,7.23
2023-03-24T01:39:39.435Z,7.67
2023-03-24T01:41:42.444Z,8.00
2023-03-24T01:43:44.681Z,7.20
2023-03-24T01:46:12.910Z,7.67
2023-03-24T01:48:26.536Z,8.33
2023-03-24T01:50:29.815Z,7.80
2023-03-24T01:52:35.563Z,7.90
2023-03-24T01:54:45.712Z,7.93
2023-03-24T01:56:56.053Z,8.33
2023-03-24T01:59:02.124Z,8.10
2023-03-24T02:01:36.127Z,8.33
2023-03-24T02:03:59.028Z,7.30
2023-03-24T02:06:02.498Z,8.03
2023-03-24T02:08:16.719Z,7.93
2023-03-24T02:10:20.813Z,8.20
2023-03-24T02:12:22.617Z,8.40
2023-03-24T02:14:24.949Z,8.40
2023-03-24T02:16:56.985Z,8.50
2023-03-24T02:19:38.384Z,8.23
2023-03-24T02:22:04.916Z,9.13
2023-03-24T02:24:25.613Z,8.50
2023-03-24T02:27:04.813Z,7.90
2023-03-24T02:29:26.034Z,8.83
2023-03-24T02:31:46.394Z,8.67
2023-03-24T02:34:34.604Z,9.00
2023-03-24T02:37:07.297Z,8.93
2023-03-24T02:39:46.313Z,8.13
2023-03-24T02:42:11.805Z,7.60
2023-03-24T02:44:41.902Z,7.27
2023-03-24T02:46:55.977Z,8.10
2023-03-24T02:49:07.513Z,7.87
2023-03-24T02:51:27.285Z,8.10
2023-03-24T02:53:36.425Z,7.33
2023-03-24T02:56:30.183Z,7.53
2023-03-24T02:58:52.145Z,7.27
2023-03-24T03:01:31.206Z,7.40
2023-03-24T03:03:50.570Z,7.47
2023-03-24T03:06:01.790Z,7.50
2023-03-24T03:08:07.670Z,7.03
2023-03-24T03:10:23.926Z,7.10
2023-03-24T03:12:29.465Z,7.37
2023-03-24T03:14:46.376Z,7.10
2023-03-24T03:17:12.506Z,7.97
2023-03-24T03:19:22.256Z,6.47
2023-03-24T03:21:28.774Z,7.00
2023-03-24T03:23:41.408Z,6.93
2023-03-24T03:25:52.229Z,6.20
2023-03-24T03:27:59.557Z,6.37
2023-03-24T03:30:12.376Z,6.07
2023-03-24T03:32:21.668Z,5.90
2023-03-24T03:34:34.084Z,5.87
2023-03-24T03:36:46.374Z,5.40
2023-03-24T03:39:10.536Z,4.90
2023-03-24T03:41:12.682Z,4.93
2023-03-24T03:43:15.634Z,5.10
2023-03-24T03:45:17.960Z,4.87
2023-03-24T03:47:22.824Z,4.83
2023-03-24T03:49:25.810Z,4.43
2023-03-24T03:51:28.668Z,4.30
2023-03-24T03:53:42.944Z,4.23
2023-03-24T03:55:45.700Z,3.90
2023-03-24T03:57:47.894Z,3.90
2023-03-24T04:00:16.692Z,4.23
2023-03-24T04:02:46.260Z,3.80
2023-03-24T04:05:29.882Z,3.93
2023-03-24T04:08:16.598Z,3.37
2023-03-24T04:10:42.973Z,3.40
2023-03-24T04:12:52.525Z,3.50
2023-03-24T04:15:49.671Z,3.53
2023-03-24T04:18:27.373Z,3.30
2023-03-24T04:20:48.789Z,3.20
2023-03-24T04:23:14.685Z,3.73
2023-03-24T04:25:40.867Z,3.63
2023-03-24T04:27:51.448Z,3.50
2023-03-24T04:30:34.450Z,3.10
2023-03-24T04:32:46.364Z,3.50
2023-03-24T04:35:01.159Z,3.20
2023-03-24T04:37:32.641Z,3.30
2023-03-24T04:39:45.581Z,2.90
2023-03-24T04:41:53.602Z,3.03
2023-03-24T04:44:01.276Z,3.10
2023-03-24T04:46:09.390Z,2.80
2023-03-24T04:48:26.251Z,3.10
2023-03-24T04:50:59.151Z,2.73
2023-03-24T04:53:06.862Z,2.70
2023-03-24T04:55:37.750Z,2.70
2023-03-24T04:57:43.244Z,3.13
2023-03-24T04:59:46.126Z,2.60
2023-03-24T05:01:51.633Z,3.17
2023-03-24T05:04:16.011Z,2.50
2023-03-24T05:06:17.859Z,2.83
2023-03-24T05:08:23.127Z,2.60
2023-03-24T05:10:26.043Z,2.73
2023-03-24T05:12:30.479Z,2.83
2023-03-24T05:14:55.948Z,2.13
2023-03-24T05:16:57.695Z,2.60
2023-03-24T05:18:59.809Z,2.50
2023-03-24T05:21:04.425Z,2.40
2023-03-24T05:23:06.763Z,2.23
2023-03-24T05:25:11.345Z,2.30
2023-03-24T05:27:13.174Z,2.00
2023-03-24T05:29:17.793Z,2.30
2023-03-24T05:31:25.160Z,2.50
2023-03-24T05:33:49.160Z,2.13
2023-03-24T05:35:53.882Z,2.20
2023-03-24T05:38:00.397Z,1.97
2023-03-24T05:40:04.189Z,2.17
2023-03-24T05:42:26.242Z,1.93
2023-03-24T05:44:28.005Z,1.90
2023-03-24T05:46:39.371Z,1.80
2023-03-24T05:48:41.160Z,2.00
2023-03-24T05:50:48.731Z,2.00
2023-03-24T05:52:51.027Z,2.07
2023-03-24T05:55:22.110Z,1.97
2023-03-24T05:57:34.733Z,2.03
2023-03-24T05:59:57.923Z,1.90
2023-03-24T06:02:27.008Z,1.60
2023-03-24T06:04:45.904Z,1.80
2023-03-24T06:06:55.864Z,1.70
2023-03-24T06:09:05.020Z,1.70
2023-03-24T06:11:09.283Z,1.83
2023-03-24T06:13:20.548Z,1.90
2023-03-24T06:15:27.758Z,1.73
2023-03-24T06:17:38.532Z,1.90
2023-03-24T06:19:50.359Z,1.93
2023-03-24T06:22:14.632Z,1.80
2023-03-24T06:24:17.526Z,3.10
2023-03-24T06:26:19.245Z,3.13
2023-03-24T06:28:30.159Z,1.80
2023-03-24T06:30:37.093Z,1.80
2023-03-24T06:32:39.068Z,1.80
2023-03-24T06:34:40.970Z,1.80
2023-03-24T06:37:10.178Z,1.90
2023-03-24T06:39:11.976Z,1.90
2023-03-24T06:41:16.525Z,1.80
2023-03-24T06:43:20.415Z,1.60
2023-03-24T06:45:22.246Z,1.87
2023-03-24T06:47:25.194Z,1.80
2023-03-24T06:49:27.297Z,1.70
2023-03-24T06:51:29.999Z,1.50
2023-03-24T06:53:31.839Z,1.50
2023-03-24T06:55:33.603Z,1.60
2023-03-24T06:57:37.947Z,1.70
2023-03-24T07:00:03.375Z,1.63
2023-03-24T07:02:12.528Z,1.80
2023-03-24T07:04:17.028Z,1.70
2023-03-24T07:06:50.980Z,1.93
2023-03-24T07:09:02.310Z,1.80
2023-03-24T07:11:07.002Z,1.60
2023-03-24T07:13:11.446Z,1.70
2023-03-24T07:15:15.331Z,1.77
2023-03-24T07:17:17.810Z,1.60
2023-03-24T07:19:41.322Z,1.60
2023-03-24T07:22:09.852Z,1.70
2023-03-24T07:24:31.902Z,1.60
2023-03-24T07:26:45.142Z,1.60
2023-03-24T07:28:56.515Z,1.63
2023-03-24T07:31:28.583Z,1.50
2023-03-24T07:33:35.627Z,1.70
2023-03-24T07:35:38.223Z,1.40
2023-03-24T07:37:41.802Z,1.53
2023-03-24T07:39:43.751Z,1.30
2023-03-24T07:41:49.023Z,1.63
2023-03-24T07:44:01.344Z,1.60
2023-03-24T07:46:13.574Z,1.50
2023-03-24T07:48:15.434Z,1.20
2023-03-24T07:50:17.550Z,1.10
2023-03-24T07:52:20.747Z,1.20
2023-03-24T07:54:26.420Z,1.10
2023-03-24T07:56:29.380Z,1.70
2023-03-24T07:58:33.163Z,1.10
2023-03-24T08:00:49.951Z,1.17
2023-03-24T08:03:05.453Z,1.50
2023-03-24T08:05:40.820Z,1.47
2023-03-24T08:07:53.773Z,1.63
2023-03-24T08:09:58.306Z,1.30
2023-03-24T08:12:04.361Z,1.40
2023-03-24T08:14:15.457Z,1.50
2023-03-24T08:16:19.796Z,1.30
2023-03-24T08:18:22.975Z,1.17
2023-03-24T08:20:29.441Z,1.50
2023-03-24T08:22:31.130Z,1.30
2023-03-24T08:24:33.196Z,1.50
2023-03-24T08:26:35.396Z,1.33
2023-03-24T08:28:37.744Z,1.40
2023-03-24T08:30:44.923Z,1.33
2023-03-24T08:32:55.544Z,1.30
2023-03-24T08:34:58.184Z,1.30
2023-03-24T08:37:00.151Z,1.30
2023-03-24T08:39:01.989Z,1.30
2023-03-24T08:41:06.523Z,1.70
2023-03-24T08:43:13.874Z,1.50
2023-03-24T08:45:16.249Z,1.70
2023-03-24T08:47:18.029Z,1.50
2023-03-24T08:49:19.794Z,1.67
2023-03-24T08:51:21.555Z,1.73
2023-03-24T08:53:23.310Z,1.50
2023-03-24T08:55:28.065Z,2.00
2023-03-24T08:57:32.071Z,1.80
2023-03-24T08:59:33.754Z,1.90
2023-03-24T09:01:35.660Z,1.70
2023-03-24T09:03:39.741Z,1.80
2023-03-24T09:05:46.043Z,1.50
2023-03-24T09:07:49.856Z,1.70
2023-03-24T09:09:55.359Z,2.00
2023-03-24T09:11:59.628Z,1.73
2023-03-24T09:14:01.435Z,1.50
2023-03-24T09:16:04.088Z,1.60
2023-03-24T09:18:06.367Z,1.50
2023-03-24T09:20:12.098Z,1.47
2023-03-24T09:22:13.761Z,1.40
2023-03-24T09:24:18.241Z,1.67
2023-03-24T09:26:19.966Z,1.87
2023-03-24T09:28:21.960Z,1.83
2023-03-24T09:30:23.702Z,1.90
2023-03-24T09:32:28.052Z,1.83
2023-03-24T09:34:31.995Z,1.80
2023-03-24T09:36:33.741Z,1.80
2023-03-24T09:38:35.590Z,1.60
2023-03-24T09:40:42.549Z,2.23
2023-03-24T09:42:46.629Z,1.73
2023-03-24T09:44:55.476Z,1.80
2023-03-24T09:47:01.962Z,2.10
2023-03-24T09:49:06.662Z,1.63
2023-03-24T09:51:29.197Z,2.33
2023-03-24T09:53:51.943Z,2.00
2023-03-24T09:55:53.944Z,2.00
2023-03-24T09:58:07.648Z,2.03
2023-03-24T10:00:35.563Z,1.80
2023-03-24T10:02:39.325Z,2.20
2023-03-24T10:04:41.114Z,1.90
2023-03-24T10:06:43.566Z,1.90
2023-03-24T10:08:58.093Z,1.83
2023-03-24T10:11:32.051Z,1.80
2023-03-24T10:13:53.617Z,1.77
2023-03-24T10:16:22.417Z,1.90
2023-03-24T10:18:34.826Z,1.60
2023-03-24T10:20:39.172Z,2.00
2023-03-24T10:22:56.028Z,1.80
2023-03-24T10:25:27.232Z,2.03
2023-03-24T10:27:32.759Z,1.67
2023-03-24T10:29:36.600Z,1.50
2023-03-24T10:31:40.215Z,1.70
2023-03-24T10:33:45.747Z,2.00
2023-03-24T10:36:00.632Z,2.07
2023-03-24T10:38:12.496Z,1.70
2023-03-24T10:40:28.254Z,1.70
2023-03-24T10:42:37.941Z,1.67
2023-03-24T10:44:40.056Z,1.80
2023-03-24T10:46:48.074Z,1.50
2023-03-24T10:48:52.802Z,1.60
2023-03-24T10:50:58.952Z,1.60
2023-03-24T10:53:00.845Z,1.67
2023-03-24T10:55:07.616Z,2.00
2023-03-24T10:57:18.326Z,1.63
2023-03-24T10:59:32.161Z,1.67
2023-03-24T11:01:35.217Z,2.10
2023-03-24T11:03:37.971Z,1.67
2023-03-24T11:05:46.465Z,1.67
2023-03-24T11:07:54.691Z,1.30
2023-03-24T11:10:17.117Z,1.80
2023-03-24T11:12:32.875Z,1.63
2023-03-24T11:14:45.759Z,1.67
2023-03-24T11:16:47.565Z,1.60
2023-03-24T11:19:22.495Z,1.83
2023-03-24T11:21:26.344Z,1.63
2023-03-24T11:23:31.700Z,1.43
2023-03-24T11:25:37.316Z,1.70
2023-03-24T11:27:43.189Z,1.60
2023-03-24T11:29:49.784Z,1.40
2023-03-24T11:32:18.599Z,1.83
2023-03-24T11:34:34.482Z,1.63
2023-03-24T11:36:51.876Z,1.77
2023-03-24T11:39:31.445Z,1.30
2023-03-24T11:41:34.399Z,1.70
2023-03-24T11:43:36.120Z,1.50
2023-03-24T11:45:41.596Z,1.60
2023-03-24T11:47:43.831Z,1.33
2023-03-24T11:49:51.425Z,2.13
2023-03-24T11:51:56.237Z,1.50
2023-03-24T11:53:59.620Z,1.77
2023-03-24T11:56:16.518Z,1.60
2023-03-24T11:58:40.885Z,1.70
2023-03-24T12:00:50.093Z,2.10
2023-03-24T12:03:13.100Z,1.80
2023-03-24T12:05:36.296Z,1.70
2023-03-24T12:08:05.999Z,1.57
2023-03-24T12:10:21.666Z,1.53
2023-03-24T12:13:05.296Z,1.40
2023-03-24T12:15:27.361Z,1.50
2023-03-24T12:17:50.064Z,1.63
2023-03-24T12:20:14.681Z,1.70
2023-03-24T12:22:31.171Z,1.60
2023-03-24T12:24:32.828Z,1.40
2023-03-24T12:26:34.959Z,1.50
2023-03-24T12:29:03.930Z,1.40
2023-03-24T12:31:28.822Z,1.80
2023-03-24T12:33:55.151Z,1.50
2023-03-24T12:36:18.770Z,1.80
2023-03-24T12:38:31.763Z,1.80
2023-03-24T12:40:57.541Z,2.00
2023-03-24T12:43:31.842Z,1.60
2023-03-24T12:45:52.352Z,1.80
2023-03-24T12:48:16.311Z,1.43
2023-03-24T12:50:40.339Z,1.60
2023-03-24T12:53:11.015Z,1.60
2023-03-24T12:55:31.690Z,1.50
2023-03-24T12:57:39.436Z,1.60
2023-03-24T13:00:02.601Z,1.67
2023-03-24T13:02:27.377Z,1.87
2023-03-24T13:04:39.647Z,1.63
2023-03-24T13:07:04.069Z,2.10
2023-03-24T13:09:40.370Z,1.33
2023-03-24T13:11:53.632Z,1.93
2023-03-24T13:13:56.430Z,2.00
2023-03-24T13:16:02.867Z,1.50
2023-03-24T13:18:10.778Z,1.60
2023-03-24T13:20:16.738Z,1.40
2023-03-24T13:22:20.685Z,1.50
2023-03-24T13:24:23.734Z,2.37
2023-03-24T13:26:43.357Z,1.30
2023-03-24T13:28:53.183Z,1.60
2023-03-24T13:30:56.168Z,1.60
2023-03-24T13:33:20.103Z,1.53
2023-03-24T13:35:32.073Z,1.57
2023-03-24T13:37:41.259Z,1.80
2023-03-24T13:39:45.906Z,2.10
2023-03-24T13:41:53.503Z,1.80
2023-03-24T13:44:02.047Z,1.93
2023-03-24T13:46:07.728Z,1.60
2023-03-24T13:48:12.417Z,2.13
2023-03-24T13:50:14.470Z,1.90
2023-03-24T13:52:35.382Z,1.50
2023-03-24T13:54:37.795Z,1.77
2023-03-24T13:56:59.409Z,1.37
2023-03-24T13:59:29.407Z,1.93
2023-03-24T14:01:45.432Z,1.90
2023-03-24T14:04:19.416Z,1.70
2023-03-24T14:06:51.949Z,1.50
2023-03-24T14:08:54.016Z,2.00
2023-03-24T14:10:58.088Z,1.70
2023-03-24T14:13:02.463Z,1.63
2023-03-24T14:15:21.805Z,1.67
2023-03-24T14:17:23.667Z,1.57
2023-03-24T14:19:39.099Z,1.50
2023-03-24T14:21:41.544Z,1.37
2023-03-24T14:23:56.363Z,1.30
2023-03-24T14:26:00.487Z,1.20
2023-03-24T14:28:19.760Z,1.30
2023-03-24T14:30:34.259Z,1.20
2023-03-24T14:33:02.025Z,1.10
2023-03-24T14:35:04.499Z,1.60
2023-03-24T14:37:08.720Z,1.57
2023-03-24T14:39:36.481Z,1.10
2023-03-24T14:41:41.324Z,1.53
2023-03-24T14:43:49.128Z,1.67
2023-03-24T14:45:58.794Z,1.70
2023-03-24T14:48:03.080Z,1.50
2023-03-24T14:50:18.879Z,1.70
2023-03-24T14:52:40.335Z,1.70
2023-03-24T14:54:53.609Z,1.40
2023-03-24T14:56:57.577Z,1.90
2023-03-24T14:59:07.429Z,1.73
2023-03-24T15:01:12.064Z,1.60
2023-03-24T15:03:49.770Z,1.60
2023-03-24T15:05:51.646Z,1.70
2023-03-24T15:08:09.647Z,1.90
2023-03-24T15:10:19.031Z,1.80
2023-03-24T15:12:21.922Z,1.50
2023-03-24T15:14:25.593Z,1.60
2023-03-24T15:16:38.663Z,1.67
2023-03-24T15:21:01.310Z,1.70
2023-03-24T15:23:08.061Z,1.60
2023-03-24T15:25:10.089Z,1.73
2023-03-24T15:27:31.700Z,1.80
2023-03-24T15:29:34.677Z,1.90
2023-03-24T15:31:38.579Z,1.53
2023-03-24T15:33:46.937Z,1.83
2023-03-24T15:35:57.697Z,1.40
2023-03-24T15:38:00.997Z,1.70
2023-03-24T15:42:19.685Z,1.70
2023-03-24T15:44:35.915Z,1.60
2023-03-24T15:46:43.587Z,1.63
2023-03-24T15:48:46.542Z,1.90
2023-03-24T15:51:08.604Z,1.60
2023-03-24T15:53:19.472Z,2.00
2023-03-24T15:55:36.796Z,1.70
2023-03-24T15:57:41.712Z,1.70
2023-03-24T15:59:47.209Z,1.50
2023-03-24T16:01:53.240Z,1.60
2023-03-24T16:03:55.374Z,1.70
2023-03-24T16:05:57.296Z,1.53
2023-03-24T16:08:05.668Z,1.90
2023-03-24T16:10:29.085Z,1.90
2023-03-24T16:12:34.910Z,1.27
2023-03-24T16:14:36.678Z,2.00
2023-03-24T16:16:38.859Z,1.60
2023-03-24T16:18:43.763Z,1.33
2023-03-24T16:20:45.485Z,1.70
2023-03-24T16:22:51.997Z,1.70
2023-03-24T16:24:53.655Z,1.60
2023-03-24T16:26:57.572Z,1.83
2023-03-24T16:29:29.003Z,1.50
2023-03-24T16:31:34.858Z,1.50
2023-03-24T16:33:36.573Z,1.50
2023-03-24T16:35:41.676Z,1.70
2023-03-24T16:37:43.448Z,2.00
2023-03-24T16:39:45.425Z,1.60
2023-03-24T16:41:49.823Z,1.93
2023-03-24T16:43:54.401Z,1.60
2023-03-24T16:45:56.100Z,1.60
2023-03-24T16:47:58.851Z,1.67
2023-03-24T16:50:01.096Z,2.00
2023-03-24T16:52:02.795Z,1.80
2023-03-24T16:54:09.052Z,1.67
2023-03-24T16:56:15.398Z,2.07
2023-03-24T16:58:19.153Z,2.30
2023-03-24T17:00:22.384Z,1.60
2023-03-24T17:02:24.136Z,1.80
2023-03-24T17:04:27.315Z,1.80
2023-03-24T17:06:31.990Z,2.00
2023-03-24T17:08:34.704Z,1.80
2023-03-24T17:10:38.439Z,1.80
2023-03-24T17:12:40.655Z,1.80
2023-03-24T17:14:43.900Z,1.53
2023-03-24T17:16:49.130Z,1.60
2023-03-24T17:18:51.016Z,1.50
2023-03-24T17:20:57.130Z,1.80
2023-03-24T17:23:00.882Z,2.27
2023-03-24T17:25:04.979Z,2.10
2023-03-24T17:27:18.915Z,1.73
2023-03-24T17:29:22.725Z,1.90
2023-03-24T17:31:26.801Z,1.90
2023-03-24T17:33:31.021Z,1.77
2023-03-24T17:35:32.836Z,1.67
2023-03-24T17:37:34.622Z,2.03
2023-03-24T17:39:36.900Z,2.07
2023-03-24T17:41:38.716Z,2.43
2023-03-24T17:43:42.064Z,1.90
2023-03-24T17:45:43.804Z,2.03
2023-03-24T17:47:46.225Z,1.63
2023-03-24T17:49:48.176Z,1.70
2023-03-24T17:51:49.884Z,1.70
2023-03-24T17:53:53.564Z,1.50
2023-03-24T17:55:58.140Z,1.83
2023-03-24T17:58:02.979Z,1.60
2023-03-24T18:00:13.056Z,1.53
2023-03-24T18:02:17.754Z,1.50
2023-03-24T18:04:20.592Z,1.40
2023-03-24T18:06:22.458Z,1.63
2023-03-24T18:08:28.941Z,1.67
2023-03-24T18:10:34.084Z,1.70
2023-03-24T18:12:40.292Z,1.90
2023-03-24T18:14:41.956Z,1.60
2023-03-24T18:16:46.257Z,1.40
2023-03-24T18:18:48.302Z,2.60
2023-03-24T18:20:50.238Z,2.13
2023-03-24T18:22:52.377Z,1.50
2023-03-24T18:24:54.723Z,1.50
2023-03-24T18:26:56.459Z,1.30
2023-03-24T18:28:58.224Z,1.50
2023-03-24T18:31:01.363Z,1.30
2023-03-24T18:33:03.075Z,1.60
2023-03-24T18:35:10.022Z,1.60
2023-03-24T18:37:14.074Z,1.67
2023-03-24T18:39:16.676Z,1.50
2023-03-24T18:41:18.656Z,1.47
2023-03-24T18:43:20.427Z,1.60
2023-03-24T18:45:24.808Z,1.50
2023-03-24T18:47:26.532Z,1.90
2023-03-24T18:49:31.660Z,1.30
2023-03-24T18:51:34.021Z,1.33
2023-03-24T18:53:36.325Z,1.30
2023-03-24T18:55:42.290Z,1.20
2023-03-24T18:57:45.225Z,1.40
2023-03-24T18:59:49.110Z,1.83
2023-03-24T19:01:51.131Z,1.33
2023-03-24T19:03:53.723Z,1.43
2023-03-24T19:06:00.484Z,1.27
2023-03-24T19:08:06.937Z,1.30
2023-03-24T19:10:08.926Z,1.30
2023-03-24T19:12:10.635Z,1.50
2023-03-24T19:14:12.682Z,1.50
2023-03-24T19:16:14.371Z,1.80
2023-03-24T19:18:16.255Z,1.40
2023-03-24T19:20:18.056Z,1.60
2023-03-24T19:22:22.024Z,1.50
2023-03-24T19:24:24.484Z,1.43
2023-03-24T19:26:26.243Z,1.60
2023-03-24T19:28:36.982Z,1.50
2023-03-24T19:30:39.396Z,1.50
2023-03-24T19:32:43.250Z,1.70
2023-03-24T19:34:46.956Z,1.30
2023-03-24T19:36:52.102Z,1.40
2023-03-24T19:38:53.877Z,1.10
2023-03-24T19:40:55.911Z,1.70
2023-03-24T19:42:57.675Z,1.00
2023-03-24T19:44:59.469Z,0.90
2023-03-24T19:47:01.222Z,4.53
2023-03-24T19:49:02.970Z,1.40
2023-03-24T19:51:05.172Z,1.60
2023-03-24T19:53:06.964Z,1.10
2023-03-24T19:55:09.664Z,0.80
2023-03-24T19:57:11.428Z,1.00
2023-03-24T19:59:13.183Z,1.00
2023-03-24T20:01:14.978Z,0.90
2023-03-24T20:03:22.153Z,1.00
2023-03-24T20:05:28.342Z,1.60
2023-03-24T20:07:32.354Z,1.10
2023-03-24T20:09:36.952Z,1.00
2023-03-24T20:11:40.532Z,1.00
2023-03-24T20:13:42.453Z,1.10
2023-03-24T20:15:46.543Z,1.70
2023-03-24T20:17:50.254Z,1.10
2023-03-24T20:19:52.886Z,1.10
2023-03-24T20:21:54.635Z,1.10
2023-03-24T20:23:56.421Z,1.20
2023-03-24T20:26:02.686Z,1.33
2023-03-24T20:28:04.609Z,1.23
2023-03-24T20:30:10.170Z,2.17
2023-03-24T20:32:14.634Z,2.43
2023-03-24T20:34:17.179Z,1.70
2023-03-24T20:36:19.033Z,1.43
2023-03-24T20:38:25.030Z,1.27
2023-03-24T20:40:29.487Z,1.30
2023-03-24T20:42:33.659Z,1.30
2023-03-24T20:44:35.473Z,0.80
2023-03-24T20:46:37.176Z,1.20
2023-03-24T20:48:38.879Z,1.40
2023-03-24T20:50:40.840Z,1.20
2023-03-24T20:52:42.608Z,1.00
2023-03-24T20:54:44.306Z,1.10
2023-03-24T20:56:46.681Z,1.00
2023-03-24T20:58:49.252Z,1.20
2023-03-24T21:00:51.781Z,1.50
2023-03-24T21:02:53.578Z,1.20
2023-03-24T21:04:55.558Z,1.20
2023-03-24T21:06:57.264Z,1.20
2023-03-24T21:08:59.959Z,1.20
2023-03-24T21:11:01.653Z,1.13
2023-03-24T21:13:04.193Z,1.27
2023-03-24T21:15:07.330Z,1.43
2023-03-24T21:17:09.042Z,1.20
2023-03-24T21:19:10.894Z,1.20
2023-03-24T21:21:17.150Z,1.30
2023-03-24T21:23:22.077Z,1.27
2023-03-24T21:25:26.664Z,1.30
2023-03-24T21:27:30.519Z,1.30
2023-03-24T21:29:32.349Z,1.10
2023-03-24T21:31:34.360Z,1.10
2023-03-24T21:33:39.878Z,1.27
2023-03-24T21:35:41.663Z,1.10
2023-03-24T21:37:47.564Z,1.10
2023-03-24T21:39:49.217Z,1.50
2023-03-24T21:41:52.365Z,1.43
2023-03-24T21:43:54.338Z,1.20
2023-03-24T21:45:59.459Z,1.07
2023-03-24T21:48:04.167Z,1.00
2023-03-24T21:50:06.622Z,0.90
2023-03-24T21:52:11.432Z,1.30
2023-03-24T21:54:14.761Z,1.10
2023-03-24T21:56:16.683Z,1.20
2023-03-24T21:58:19.224Z,1.20
2023-03-24T22:00:30.804Z,1.10
2023-03-24T22:02:34.818Z,1.40
2023-03-24T22:04:38.248Z,1.30
2023-03-24T22:06:40.055Z,1.80
2023-03-24T22:08:48.646Z,1.40
2023-03-24T22:10:54.271Z,1.40
2023-03-24T22:12:56.553Z,1.30
2023-03-24T22:14:58.235Z,1.50
2023-03-24T22:17:00.156Z,1.43
2023-03-24T22:19:01.912Z,1.13
2023-03-24T22:21:07.043Z,1.10
2023-03-24T22:23:08.886Z,1.30
2023-03-24T22:25:12.640Z,1.20
2023-03-24T22:27:14.596Z,1.10
2023-03-24T22:29:18.420Z,1.23
2023-03-24T22:31:23.016Z,1.40
2023-03-24T22:33:25.322Z,1.30
2023-03-24T22:35:27.952Z,1.30
2023-03-24T22:37:30.728Z,1.40
2023-03-24T22:39:33.977Z,1.20
2023-03-24T22:41:36.757Z,1.30
2023-03-24T22:43:43.604Z,1.20
2023-03-24T22:45:45.728Z,1.30
2023-03-24T22:47:49.838Z,1.37
2023-03-24T22:49:51.586Z,1.23
2023-03-24T22:51:55.982Z,1.30
2023-03-24T22:53:58.284Z,1.37
2023-03-24T22:56:00.247Z,1.20
2023-03-24T22:58:02.046Z,1.20
2023-03-24T23:00:05.838Z,1.50
2023-03-24T23:02:10.274Z,1.20
2023-03-24T23:04:12.775Z,1.40
2023-03-24T23:06:16.891Z,1.20
2023-03-24T23:08:19.264Z,1.30
2023-03-24T23:10:21.275Z,1.20
2023-03-24T23:12:28.055Z,1.30
2023-03-24T23:14:29.956Z,1.40
2023-03-24T23:16:33.652Z,1.37
2023-03-24T23:18:35.888Z,1.27
2023-03-24T23:20:38.970Z,1.53
2023-03-24T23:22:41.845Z,1.47
2023-03-24T23:24:44.642Z,1.50
2023-03-24T23:26:47.221Z,1.60
2023-03-24T23:28:57.146Z,1.53
2023-03-24T23:30:59.282Z,1.37
2023-03-24T23:33:02.083Z,1.50
2023-03-24T23:35:05.797Z,1.30
2023-03-24T23:37:07.460Z,1.40
2023-03-24T23:39:09.441Z,1.27
2023-03-24T23:41:11.420Z,1.40
2023-03-24T23:43:13.528Z,1.60
2023-03-24T23:45:20.159Z,1.40
2023-03-24T23:47:21.902Z,1.50
2023-03-24T23:49:23.641Z,1.77
2023-03-24T23:51:25.380Z,1.70
2023-03-24T23:53:28.293Z,1.70
2023-03-24T23:55:30.049Z,1.60
2023-03-24T23:57:35.087Z,1.40
2023-03-24T23:59:36.889Z,1.70
